Time;durP1;ratioP1;P1;durP2;ratioP2;P2;SDS_P1;SDS_P2;PMS_P1;PMS_P2;Temp;Humidity;BMP_temperature;BMP_pressure;BME280_temperature;BME280_humidity;BME280_pressure;Samples;Min_cycle;Max_cycle;Signal;HPM_P1;HPM_P2
2022/10/21 00:01:34;;;;;;;1999.90;999.90;;;13.20;99.90;;;;;;5048669;28;20448;-69
2022/10/21 00:04:01;;;;;;;1999.90;999.90;;;13.10;99.90;;;;;;5049756;28;20450;-68
2022/10/21 00:06:28;;;;;;;1999.90;999.90;;;13.10;99.90;;;;;;5049299;28;20452;-68
2022/10/21 00:08:55;;;;;;;1999.90;999.90;;;13.10;99.90;;;;;;5049583;28;20448;-67
2022/10/21 00:11:22;;;;;;;1999.90;999.90;;;13.00;99.90;;;;;;5049256;28;20484;-68
2022/10/21 00:13:49;;;;;;;1999.90;999.90;;;13.10;99.90;;;;;;5048993;28;20440;-68
2022/10/21 00:16:18;;;;;;;1999.90;999.90;;;13.10;99.90;;;;;;5049270;28;21132;-67
2022/10/21 00:18:47;;;;;;;1999.90;999.90;;;13.20;99.90;;;;;;5049542;28;20468;-67
2022/10/21 00:21:16;;;;;;;1999.90;999.90;;;13.10;99.90;;;;;;5049401;28;20443;-70
2022/10/21 00:23:43;;;;;;;1999.90;999.90;;;13.20;99.90;;;;;;5049097;28;20452;-68
2022/10/21 00:26:11;;;;;;;1999.90;999.90;;;13.20;99.90;;;;;;5049235;28;20868;-67
2022/10/21 00:28:37;;;;;;;1999.90;999.90;;;13.10;99.90;;;;;;5049511;28;20468;-67
2022/10/21 00:31:07;;;;;;;1999.90;999.90;;;13.20;99.90;;;;;;5049333;28;20448;-67
2022/10/21 00:33:36;;;;;;;1999.90;999.90;;;13.20;99.90;;;;;;5049026;28;20452;-68
2022/10/21 00:36:06;;;;;;;1999.90;999.90;;;13.20;99.90;;;;;;5048747;28;20460;-68
2022/10/21 00:38:33;;;;;;;1999.90;999.90;;;13.20;99.90;;;;;;5049381;28;21086;-68
2022/10/21 00:41:00;;;;;;;1999.90;999.90;;;13.10;99.90;;;;;;5048846;28;20455;-68
2022/10/21 00:43:30;;;;;;;1999.90;999.90;;;13.10;99.90;;;;;;5048957;28;20980;-68
2022/10/21 00:46:00;;;;;;;1999.90;999.90;;;13.00;99.90;;;;;;5048865;28;20444;-69
2022/10/21 00:48:32;;;;;;;1999.90;999.90;;;12.90;99.90;;;;;;5049575;28;20475;-67
2022/10/21 00:51:05;;;;;;;1999.90;999.90;;;12.80;99.90;;;;;;5048865;28;20440;-68
2022/10/21 00:53:35;;;;;;;1999.90;999.90;;;12.80;99.90;;;;;;5049181;28;20471;-68
2022/10/21 00:56:07;;;;;;;1999.90;999.90;;;12.80;99.90;;;;;;5048950;28;20444;-68
2022/10/21 00:58:36;;;;;;;1999.90;999.90;;;12.80;99.90;;;;;;5049297;28;20464;-68
2022/10/21 01:01:05;;;;;;;1999.90;999.90;;;12.80;99.90;;;;;;5048848;28;20456;-68
2022/10/21 01:03:33;;;;;;;1999.90;999.90;;;12.80;99.90;;;;;;5048987;28;20448;-67
2022/10/21 01:06:05;;;;;;;1999.90;999.90;;;12.80;99.90;;;;;;5048886;28;20474;-70
2022/10/21 01:08:32;;;;;;;1999.90;999.90;;;12.80;99.90;;;;;;5049355;28;20479;-68
2022/10/21 01:11:00;;;;;;;1999.90;999.90;;;12.80;99.90;;;;;;5049289;28;20440;-67
2022/10/21 01:13:37;;;;;;;1999.90;999.90;;;12.80;99.90;;;;;;5048454;28;20996;-68
2022/10/21 01:16:10;;;;;;;1999.90;999.90;;;12.90;99.90;;;;;;5052932;28;20459;-67
2022/10/21 01:18:47;;;;;;;1999.90;999.90;;;12.90;99.90;;;;;;5060911;28;20459;-68
2022/10/21 01:21:31;;;;;;;1999.90;999.90;;;12.80;99.90;;;;;;5072675;28;20807;-68
2022/10/21 01:24:33;;;;;;;1999.90;999.90;;;12.80;99.90;;;;;;5072299;28;20453;-67
2022/10/21 01:27:11;;;;;;;1999.90;999.90;;;12.90;99.90;;;;;;5069981;28;20470;-67
2022/10/21 01:30:07;;;;;;;1999.90;999.90;;;12.90;99.90;;;;;;5072532;28;20450;-66
2022/10/21 01:32:47;;;;;;;1999.90;999.90;;;12.90;99.90;;;;;;5044305;28;20483;-67
2022/10/21 01:35:21;;;;;;;1999.90;999.90;;;12.90;99.90;;;;;;5071787;28;21014;-67
2022/10/21 01:37:55;;;;;;;1999.90;999.90;;;12.90;99.90;;;;;;5072463;28;20463;-68
2022/10/21 01:40:27;;;;;;;1999.90;999.90;;;13.00;99.90;;;;;;5072306;28;20446;-67
2022/10/21 01:42:58;;;;;;;1999.90;999.90;;;12.90;99.90;;;;;;5071664;28;20439;-67
2022/10/21 01:45:31;;;;;;;1999.90;999.90;;;12.90;99.90;;;;;;5071727;28;20439;-67
2022/10/21 01:48:04;;;;;;;1999.90;999.90;;;12.80;99.90;;;;;;5072391;28;20474;-67
2022/10/21 01:50:36;;;;;;;1999.90;999.90;;;12.90;99.90;;;;;;5072064;28;20445;-68
2022/10/21 01:53:07;;;;;;;1999.90;999.90;;;12.80;99.90;;;;;;5071953;28;20490;-67
2022/10/21 01:55:35;;;;;;;1999.90;999.90;;;12.80;99.90;;;;;;5071764;28;20451;-68
2022/10/21 01:58:04;;;;;;;1999.90;999.90;;;12.80;99.90;;;;;;5072266;28;20470;-68
2022/10/21 02:00:34;;;;;;;1999.90;999.90;;;12.80;99.90;;;;;;5072041;28;20451;-67
2022/10/21 02:03:07;;;;;;;1999.90;999.90;;;12.80;99.90;;;;;;5071673;28;20435;-67
2022/10/21 02:05:34;;;;;;;1999.90;999.90;;;12.90;99.90;;;;;;5071715;28;21062;-69
2022/10/21 02:08:01;;;;;;;1999.90;999.90;;;13.00;99.90;;;;;;5071657;28;20994;-67
2022/10/21 02:10:33;;;;;;;1999.90;999.90;;;13.20;99.90;;;;;;5071843;28;20462;-68
2022/10/21 02:13:03;;;;;;;1999.90;999.90;;;13.30;99.90;;;;;;5071302;28;20507;-69
2022/10/21 02:15:31;;;;;;;1999.90;999.90;;;13.30;99.90;;;;;;5071375;28;20447;-68
2022/10/21 02:18:05;;;;;;;1999.90;999.90;;;13.40;99.90;;;;;;5071471;28;20801;-67
2022/10/21 02:20:35;;;;;;;1999.90;999.90;;;13.50;99.90;;;;;;5071704;28;20442;-70
2022/10/21 02:23:03;;;;;;;1999.90;999.90;;;13.50;99.90;;;;;;5071194;28;20443;-68
2022/10/21 02:25:34;;;;;;;1999.90;999.90;;;13.60;99.90;;;;;;5070389;28;20913;-68
2022/10/21 02:28:01;;;;;;;1999.90;999.90;;;13.60;99.90;;;;;;5071365;28;21070;-68
2022/10/21 02:30:35;;;;;;;1999.90;999.90;;;13.60;99.90;;;;;;5071678;28;20451;-68
2022/10/21 02:33:10;;;;;;;1999.90;999.90;;;13.70;99.90;;;;;;5070859;28;20475;-69
2022/10/21 02:35:43;;;;;;;1999.90;999.90;;;13.70;99.90;;;;;;5071021;28;20459;-68
2022/10/21 02:38:22;;;;;;;1999.90;999.90;;;13.70;99.90;;;;;;5071415;28;20475;-68
2022/10/21 02:40:53;;;;;;;1999.90;999.90;;;13.70;99.90;;;;;;5070997;28;20446;-68
2022/10/21 02:43:25;;;;;;;1999.90;999.90;;;13.70;99.90;;;;;;5070871;28;20443;-68
2022/10/21 02:45:59;;;;;;;1999.90;999.90;;;13.60;99.90;;;;;;5070668;28;20466;-67
2022/10/21 02:48:27;;;;;;;1999.90;999.90;;;13.70;99.90;;;;;;5071251;28;20463;-68
2022/10/21 02:50:54;;;;;;;1999.90;999.90;;;13.60;99.90;;;;;;5070712;28;20850;-67
2022/10/21 02:53:21;;;;;;;1999.90;999.90;;;13.70;99.90;;;;;;5070676;28;20487;-69
2022/10/21 02:55:47;;;;;;;1999.90;999.90;;;13.60;99.90;;;;;;5070604;28;20459;-69
2022/10/21 02:58:14;;;;;;;1999.90;999.90;;;13.70;99.90;;;;;;5070924;28;20573;-68
2022/10/21 03:00:41;;;;;;;1999.90;999.90;;;13.70;99.90;;;;;;5070375;28;20454;-69
2022/10/21 03:03:07;;;;;;;1999.90;999.90;;;13.70;99.90;;;;;;5070568;28;20443;-68
2022/10/21 03:05:36;;;;;;;1999.90;999.90;;;13.80;99.90;;;;;;5070454;28;20443;-68
2022/10/21 03:08:02;;;;;;;1999.90;999.90;;;13.80;99.90;;;;;;5071017;28;20490;-68
2022/10/21 03:10:29;;;;;;;1999.90;999.90;;;13.70;99.90;;;;;;5070970;28;20442;-69
2022/10/21 03:12:56;;;;;;;1999.90;999.90;;;13.70;99.90;;;;;;5069764;28;20466;-68
2022/10/21 03:15:23;;;;;;;1999.90;999.90;;;13.70;99.90;;;;;;5071239;28;20445;-68
2022/10/21 03:17:49;;;;;;;1999.90;999.90;;;13.70;99.90;;;;;;5071186;28;20852;-70
2022/10/21 03:20:16;;;;;;;1999.90;999.90;;;13.70;99.90;;;;;;5071524;28;20443;-68
2022/10/21 03:22:44;;;;;;;1999.90;999.90;;;13.70;99.90;;;;;;5070137;28;20435;-67
2022/10/21 03:25:11;;;;;;;1999.90;999.90;;;13.70;99.90;;;;;;5070785;28;20446;-68
2022/10/21 03:27:39;;;;;;;1999.90;999.90;;;13.60;99.90;;;;;;5070658;28;20463;-68
2022/10/21 03:30:08;;;;;;;1999.90;999.90;;;13.60;99.90;;;;;;5071585;28;20439;-69
2022/10/21 03:32:35;;;;;;;1999.90;999.90;;;13.60;99.90;;;;;;5070261;28;20835;-68
2022/10/21 03:35:01;;;;;;;1999.90;999.90;;;13.70;99.90;;;;;;5071317;28;20465;-68
2022/10/21 03:37:28;;;;;;;1999.90;999.90;;;13.80;99.90;;;;;;5071582;28;20987;-70
2022/10/21 03:39:56;;;;;;;1999.90;999.90;;;13.80;99.90;;;;;;5071353;28;20446;-68
2022/10/21 03:42:23;;;;;;;1999.90;999.90;;;13.80;99.90;;;;;;5070792;28;20442;-69
2022/10/21 03:44:50;;;;;;;1999.90;999.90;;;13.80;99.90;;;;;;5071366;28;20439;-68
2022/10/21 03:47:16;;;;;;;1999.90;999.90;;;13.90;99.90;;;;;;5071692;28;20997;-68
2022/10/21 03:49:43;;;;;;;1999.90;999.90;;;13.90;99.90;;;;;;5071139;28;20446;-68
2022/10/21 03:52:10;;;;;;;1999.90;999.90;;;13.90;99.90;;;;;;5069289;28;20435;-67
2022/10/21 03:54:36;;;;;;;1999.90;999.90;;;13.90;99.90;;;;;;5069736;28;20800;-68
2022/10/21 03:57:05;;;;;;;1999.90;999.90;;;13.90;99.90;;;;;;5070052;28;20470;-67
2022/10/21 03:59:31;;;;;;;1999.90;999.90;;;14.00;99.90;;;;;;5070032;28;20442;-68
2022/10/21 04:01:58;;;;;;;1999.90;999.90;;;14.10;99.90;;;;;;5068981;28;20435;-67
2022/10/21 04:04:25;;;;;;;1999.90;999.90;;;14.10;99.90;;;;;;5069857;28;20800;-68
2022/10/21 04:06:52;;;;;;;1999.90;999.90;;;14.10;99.90;;;;;;5069780;28;20455;-68
2022/10/21 04:09:18;;;;;;;1999.90;999.90;;;14.20;99.90;;;;;;5070148;28;20442;-67
2022/10/21 04:11:45;;;;;;;1999.90;999.90;;;14.20;99.90;;;;;;5069291;28;20450;-67
2022/10/21 04:14:13;;;;;;;1999.90;999.90;;;14.20;99.90;;;;;;5070115;28;20478;-69
2022/10/21 04:16:40;;;;;;;1999.90;999.90;;;14.20;99.90;;;;;;5069633;28;20470;-69
2022/10/21 04:19:07;;;;;;;1999.90;999.90;;;14.20;99.90;;;;;;5070047;28;20786;-68
2022/10/21 04:21:33;;;;;;;1999.90;999.90;;;14.20;99.90;;;;;;5069266;28;20799;-68
2022/10/21 04:24:00;;;;;;;1999.90;999.90;;;14.20;99.90;;;;;;5069836;28;20438;-68
2022/10/21 04:26:27;;;;;;;1999.90;999.90;;;14.20;99.90;;;;;;5070741;28;20521;-70
2022/10/21 04:28:54;;;;;;;1999.90;999.90;;;14.20;99.90;;;;;;5072955;28;20466;-68
2022/10/21 04:31:22;;;;;;;1999.90;999.90;;;14.10;99.90;;;;;;5074634;28;20436;-71
2022/10/21 04:33:50;;;;;;;1999.90;999.90;;;14.20;99.90;;;;;;5076640;28;20470;-71
2022/10/21 04:36:17;;;;;;;1999.90;999.90;;;14.20;99.90;;;;;;5072420;28;20438;-72
2022/10/21 04:38:44;;;;;;;1999.90;999.90;;;14.20;99.90;;;;;;5069247;28;20459;-73
2022/10/21 04:41:11;;;;;;;1999.90;999.90;;;14.20;99.90;;;;;;5072313;28;20442;-70
2022/10/21 04:43:37;;;;;;;1999.90;999.90;;;14.20;99.90;;;;;;5069944;28;20640;-68
2022/10/21 04:46:09;;;;;;;1999.90;999.90;;;14.20;99.90;;;;;;5073989;28;20439;-70
2022/10/21 04:48:37;;;;;;;1999.90;999.90;;;14.20;99.90;;;;;;5078424;28;20459;-72
2022/10/21 04:51:04;;;;;;;1999.90;999.90;;;14.20;99.90;;;;;;5081309;28;20450;-71
2022/10/21 04:53:31;;;;;;;1999.90;999.90;;;14.20;99.90;;;;;;5080625;28;20486;-71
2022/10/21 04:55:58;;;;;;;1999.90;999.90;;;14.10;99.90;;;;;;5079974;28;20539;-71
2022/10/21 04:58:24;;;;;;;1999.90;999.90;;;14.20;99.90;;;;;;5082089;28;20470;-71
2022/10/21 05:00:51;;;;;;;1999.90;999.90;;;14.20;99.90;;;;;;5080020;28;20435;-71
2022/10/21 05:03:18;;;;;;;1999.90;999.90;;;14.20;99.90;;;;;;5078151;28;20454;-71
2022/10/21 05:05:48;;;;;;;1999.90;999.90;;;14.20;99.90;;;;;;5070104;28;20826;-69
2022/10/21 05:08:15;;;;;;;1999.90;999.90;;;14.20;99.90;;;;;;5073891;28;20491;-70
2022/10/21 05:10:42;;;;;;;1999.90;999.90;;;14.20;99.90;;;;;;5078236;28;20443;-70
2022/10/21 05:13:09;;;;;;;1999.90;999.90;;;14.20;99.90;;;;;;5077396;28;20489;-71
2022/10/21 05:15:35;;;;;;;1999.90;999.90;;;14.20;99.90;;;;;;5073623;28;20435;-70
2022/10/21 05:18:02;;;;;;;1999.90;999.90;;;14.30;99.90;;;;;;5075207;28;20580;-69
2022/10/21 05:20:29;;;;;;;1999.90;999.90;;;14.20;99.90;;;;;;5082351;28;20933;-71
2022/10/21 05:22:57;;;;;;;1999.90;999.90;;;14.30;99.90;;;;;;5075241;28;20814;-70
2022/10/21 05:25:24;;;;;;;1999.90;999.90;;;14.30;99.90;;;;;;5075449;28;20483;-70
2022/10/21 05:27:51;;;;;;;1999.90;999.90;;;14.30;99.90;;;;;;5076081;28;20491;-70
2022/10/21 05:30:18;;;;;;;1999.90;999.90;;;14.20;99.90;;;;;;5076286;28;20547;-70
2022/10/21 05:32:45;;;;;;;1999.90;999.90;;;14.20;99.90;;;;;;5074947;28;20838;-70
2022/10/21 05:35:12;;;;;;;1999.90;999.90;;;14.20;99.90;;;;;;5075135;28;20546;-70
2022/10/21 05:37:39;;;;;;;1999.90;999.90;;;14.30;99.90;;;;;;5075608;28;20501;-70
2022/10/21 05:40:08;;;;;;;1999.90;999.90;;;14.30;99.90;;;;;;5075778;28;20534;-70
2022/10/21 05:42:35;;;;;;;1999.90;999.90;;;14.30;99.90;;;;;;5075107;28;20696;-70
2022/10/21 05:45:02;;;;;;;1999.90;999.90;;;14.30;99.90;;;;;;5075746;28;20967;-70
2022/10/21 05:47:29;;;;;;;1999.90;999.90;;;14.30;99.90;;;;;;5076100;28;20551;-70
2022/10/21 05:49:55;;;;;;;1999.90;999.90;;;14.30;99.90;;;;;;5076606;28;20458;-70
2022/10/21 05:52:22;;;;;;;1999.90;999.90;;;14.30;99.90;;;;;;5076064;28;20479;-69
2022/10/21 05:54:49;;;;;;;1999.90;999.90;;;14.30;99.90;;;;;;5074474;28;20570;-70
2022/10/21 05:57:17;;;;;;;1999.90;999.90;;;14.20;99.90;;;;;;5075834;28;20506;-70
2022/10/21 05:59:44;;;;;;;1999.90;999.90;;;14.30;99.90;;;;;;5076011;28;20531;-69
2022/10/21 06:02:11;;;;;;;1999.90;999.90;;;14.30;99.90;;;;;;5075205;28;20530;-70
2022/10/21 06:04:38;;;;;;;1999.90;999.90;;;14.30;99.90;;;;;;5075006;28;20853;-69
2022/10/21 06:07:05;;;;;;;1999.90;999.90;;;14.30;99.90;;;;;;5075510;28;20906;-71
2022/10/21 06:09:31;;;;;;;1999.90;999.90;;;14.30;99.90;;;;;;5074675;28;20506;-71
2022/10/21 06:11:58;;;;;;;1999.90;999.90;;;14.30;99.90;;;;;;5072824;28;20940;-67
2022/10/21 06:14:27;;;;;;;1999.90;999.90;;;14.30;99.90;;;;;;5073610;28;20486;-68
2022/10/21 06:16:54;;;;;;;1999.90;999.90;;;14.40;99.90;;;;;;5074570;28;20455;-68
2022/10/21 06:19:20;;;;;;;1999.90;999.90;;;14.40;99.90;;;;;;5074368;28;20443;-68
2022/10/21 06:21:48;;;;;;;1999.90;999.90;;;14.40;99.90;;;;;;5073253;28;20988;-68
2022/10/21 06:24:14;;;;;;;1999.90;999.90;;;14.40;99.90;;;;;;5074154;28;20475;-68
2022/10/21 06:26:41;;;;;;;1999.90;999.90;;;14.50;99.90;;;;;;5074000;28;20446;-68
2022/10/21 06:29:08;;;;;;;1999.90;999.90;;;14.50;99.90;;;;;;5073749;28;20439;-68
2022/10/21 06:31:36;;;;;;;1999.90;999.90;;;14.60;99.90;;;;;;5073930;28;20435;-68
2022/10/21 06:34:03;;;;;;;1999.90;999.90;;;14.60;99.90;;;;;;5073254;28;20478;-68
2022/10/21 06:36:30;;;;;;;1999.90;999.90;;;14.70;99.90;;;;;;5073058;28;20439;-68
2022/10/21 06:38:57;;;;;;;1999.90;999.90;;;14.70;99.90;;;;;;5073428;28;20439;-69
2022/10/21 06:41:23;;;;;;;1999.90;999.90;;;14.80;99.90;;;;;;5073436;28;20435;-68
2022/10/21 06:43:50;;;;;;;1999.90;999.90;;;14.80;99.90;;;;;;5073227;28;20925;-69
2022/10/21 06:46:17;;;;;;;1999.90;999.90;;;14.80;99.90;;;;;;5073559;28;20450;-69
2022/10/21 06:48:45;;;;;;;1999.90;999.90;;;14.90;99.90;;;;;;5073080;28;20451;-69
2022/10/21 06:51:15;;;;;;;1999.90;999.90;;;14.90;99.90;;;;;;5072261;28;20956;-69
2022/10/21 06:53:42;;;;;;;1999.90;999.90;;;15.00;99.90;;;;;;5072514;28;20490;-69
2022/10/21 06:56:11;;;;;;;1999.90;999.90;;;15.00;99.90;;;;;;5072758;28;20531;-69
2022/10/21 06:58:42;;;;;;;1999.90;999.90;;;15.00;99.90;;;;;;5072535;28;20558;-69
2022/10/21 07:01:09;;;;;;;1999.90;999.90;;;15.00;99.90;;;;;;5072096;28;20446;-69
2022/10/21 07:03:36;;;;;;;1999.90;999.90;;;15.00;99.90;;;;;;5072868;28;20440;-69
2022/10/21 07:06:05;;;;;;;1999.90;999.90;;;15.10;99.90;;;;;;5072428;28;20987;-68
2022/10/21 07:08:33;;;;;;;1999.90;999.90;;;15.10;99.90;;;;;;5073330;28;20835;-69
2022/10/21 07:11:00;;;;;;;1999.90;999.90;;;15.10;99.90;;;;;;5072709;28;20439;-69
2022/10/21 07:13:27;;;;;;;1999.90;999.90;;;15.10;99.90;;;;;;5072244;28;20482;-69
2022/10/21 07:16:01;;;;;;;1999.90;999.90;;;15.10;99.90;;;;;;5073090;28;20443;-69
2022/10/21 07:18:28;;;;;;;1999.90;999.90;;;15.00;99.90;;;;;;5073241;28;20478;-69
2022/10/21 07:20:55;;;;;;;1999.90;999.90;;;15.00;99.90;;;;;;5072826;28;20948;-69
2022/10/21 07:23:23;;;;;;;1999.90;999.90;;;15.10;99.90;;;;;;5072778;28;20447;-68
2022/10/21 07:25:49;;;;;;;1999.90;999.90;;;15.20;99.90;;;;;;5072739;28;20442;-69
2022/10/21 07:28:16;;;;;;;1999.90;999.90;;;15.20;99.90;;;;;;5073299;28;20462;-69
2022/10/21 07:30:44;;;;;;;1999.90;999.90;;;15.20;99.90;;;;;;5072666;28;20447;-68
2022/10/21 07:33:12;;;;;;;1999.90;999.90;;;15.10;99.90;;;;;;5072356;28;20435;-69
2022/10/21 07:35:38;;;;;;;1999.90;999.90;;;15.20;99.90;;;;;;5072026;28;20453;-69
2022/10/21 07:38:05;;;;;;;1999.90;999.90;;;15.20;99.90;;;;;;5072280;28;20473;-69
2022/10/21 07:40:39;;;;;;;1999.90;999.90;;;15.30;99.90;;;;;;5072181;28;20446;-69
2022/10/21 07:43:06;;;;;;;1999.90;999.90;;;15.40;99.90;;;;;;5071969;28;20447;-69
2022/10/21 07:45:34;;;;;;;1999.90;999.90;;;15.40;99.90;;;;;;5071799;28;20448;-69
2022/10/21 07:48:00;;;;;;;1999.90;999.90;;;15.50;99.90;;;;;;5072160;28;20450;-69
2022/10/21 07:50:27;;;;;;;1999.90;999.90;;;15.50;99.90;;;;;;5070965;28;20442;-69
2022/10/21 07:52:54;;;;;;;1999.90;999.90;;;15.40;99.90;;;;;;5070406;28;20443;-69
2022/10/21 07:55:20;;;;;;;1999.90;999.90;;;15.40;99.90;;;;;;5070728;28;20486;-70
2022/10/21 07:57:48;;;;;;;1999.90;999.90;;;15.40;99.90;;;;;;5070392;28;20992;-69
2022/10/21 08:00:15;;;;;;;1999.90;999.90;;;15.40;99.90;;;;;;5070637;28;20439;-69
2022/10/21 08:02:42;;;;;;;1999.90;999.90;;;15.50;99.90;;;;;;5069214;28;20447;-69
2022/10/21 08:05:09;;;;;;;1999.90;999.90;;;15.50;99.90;;;;;;5070245;28;20435;-69
2022/10/21 08:07:36;;;;;;;1999.90;999.90;;;15.50;99.90;;;;;;5070451;28;20458;-69
2022/10/21 08:10:04;;;;;;;1999.90;999.90;;;15.50;99.90;;;;;;5070372;28;20454;-69
2022/10/21 08:12:31;;;;;;;1999.90;999.90;;;15.50;99.90;;;;;;5069096;28;20446;-69
2022/10/21 08:14:59;;;;;;;1999.90;999.90;;;15.50;99.90;;;;;;5069626;28;20467;-69
2022/10/21 08:17:25;;;;;;;1999.90;999.90;;;15.50;99.90;;;;;;5070236;28;20795;-69
2022/10/21 08:19:52;;;;;;;1999.90;999.90;;;15.60;99.90;;;;;;5070156;28;20439;-69
2022/10/21 08:22:19;;;;;;;1999.90;999.90;;;15.60;99.90;;;;;;5069396;28;20852;-69
2022/10/21 08:24:46;;;;;;;1999.90;999.90;;;15.70;99.90;;;;;;5068534;28;20442;-68
2022/10/21 08:27:12;;;;;;;1999.90;999.90;;;15.60;99.90;;;;;;5069215;28;20470;-68
2022/10/21 08:29:39;;;;;;;1999.90;999.90;;;15.60;99.90;;;;;;5069442;28;20693;-69
2022/10/21 08:32:08;;;;;;;1999.90;999.90;;;15.60;99.90;;;;;;5070531;28;20450;-69
2022/10/21 08:34:34;;;;;;;1999.90;999.90;;;15.60;99.90;;;;;;5064540;28;118875;-69
2022/10/21 08:37:01;;;;;;;1999.90;999.90;;;15.70;99.90;;;;;;5069419;28;20217;-69
2022/10/21 08:39:28;;;;;;;1999.90;999.90;;;15.70;99.90;;;;;;5069951;28;20466;-69
2022/10/21 08:42:05;;;;;;;1999.90;999.90;;;15.70;99.90;;;;;;5069321;28;20443;-69
2022/10/21 08:44:44;;;;;;;1999.90;999.90;;;15.70;99.90;;;;;;5069716;28;20932;-69
2022/10/21 08:47:18;;;;;;;1999.90;999.90;;;15.70;99.90;;;;;;5070597;28;20521;-69
2022/10/21 08:49:55;;;;;;;1999.90;999.90;;;15.70;99.90;;;;;;5070697;28;20439;-69
2022/10/21 08:52:26;;;;;;;1999.90;999.90;;;15.70;99.90;;;;;;5069517;28;20932;-69
2022/10/21 08:54:57;;;;;;;1999.90;999.90;;;15.70;99.90;;;;;;5070286;28;20479;-69
2022/10/21 08:57:24;;;;;;;1999.90;999.90;;;15.70;99.90;;;;;;5070405;28;20458;-69
2022/10/21 08:59:51;;;;;;;1999.90;999.90;;;15.70;99.90;;;;;;5070540;28;20447;-69
2022/10/21 09:02:47;;;;;;;1999.90;999.90;;;15.70;99.90;;;;;;5069726;28;20439;-69
2022/10/21 09:05:29;;;;;;;1999.90;999.90;;;15.70;99.90;;;;;;5070365;28;20432;-69
2022/10/21 09:08:06;;;;;;;1999.90;999.90;;;15.70;99.90;;;;;;5070679;28;20455;-68
2022/10/21 09:10:43;;;;;;;1999.90;999.90;;;15.70;99.90;;;;;;5070448;28;20435;-68
2022/10/21 09:13:15;;;;;;;1999.90;999.90;;;15.50;99.90;;;;;;5070075;28;20435;-69
2022/10/21 09:15:53;;;;;;;1999.90;999.90;;;15.40;99.90;;;;;;5070103;28;20474;-69
2022/10/21 09:18:32;;;;;;;1999.90;999.90;;;15.50;99.90;;;;;;5070268;28;20463;-69
2022/10/21 09:21:07;;;;;;;1999.90;999.90;;;15.40;99.90;;;;;;5069845;28;20920;-69
2022/10/21 09:24:00;;;;;;;1999.90;999.90;;;15.40;99.90;;;;;;5078716;28;20927;-69
2022/10/21 09:26:37;;;;;;;1999.90;999.90;;;15.50;99.90;;;;;;5079163;28;20691;-69
2022/10/21 09:29:24;;;;;;;1999.90;999.90;;;15.50;99.90;;;;;;5074040;28;20518;-69
2022/10/21 09:31:51;;;;;;;1999.90;999.90;;;15.60;99.90;;;;;;5062829;28;20642;-69
2022/10/21 09:34:32;;;;;;;1999.90;999.90;;;15.80;99.90;;;;;;5067341;28;20481;-69
2022/10/21 09:37:02;;;;;;;1999.90;999.90;;;15.90;99.90;;;;;;5070675;28;20462;-69
2022/10/21 09:39:37;;;;;;;1999.90;999.90;;;15.90;99.90;;;;;;5071381;28;20431;-69
2022/10/21 09:42:05;;;;;;;1999.90;999.90;;;16.10;99.90;;;;;;5071007;28;20818;-70
2022/10/21 09:44:32;;;;;;;1999.90;999.90;;;16.30;99.90;;;;;;5052183;28;21192;-70
2022/10/21 09:46:59;;;;;;;1999.90;999.90;;;16.40;99.90;;;;;;5058307;28;20459;-67
2022/10/21 09:49:29;;;;;;;1999.90;999.90;;;16.50;99.90;;;;;;5061177;28;20440;-69
2022/10/21 09:52:00;;;;;;;1999.90;999.90;;;16.60;99.90;;;;;;5056319;28;20449;-69
2022/10/21 09:54:32;;;;;;;1999.90;999.90;;;16.50;99.90;;;;;;5062078;28;20479;-68
2022/10/21 09:57:04;;;;;;;1999.90;999.90;;;16.60;99.90;;;;;;5062625;28;20834;-68
2022/10/21 09:59:31;;;;;;;1999.90;999.90;;;16.50;99.90;;;;;;5055016;28;20432;-68
2022/10/21 10:02:06;;;;;;;1999.90;999.90;;;16.60;99.90;;;;;;5065505;28;20451;-68
2022/10/21 10:04:38;;;;;;;1999.90;999.90;;;16.50;99.90;;;;;;5067976;28;20551;-68
2022/10/21 10:07:20;;;;;;;1999.90;999.90;;;16.50;99.90;;;;;;5068533;28;20467;-70
2022/10/21 10:09:48;;;;;;;1999.90;999.90;;;16.60;99.90;;;;;;5067822;28;21129;-69
2022/10/21 10:12:16;;;;;;;1999.90;999.90;;;16.60;99.90;;;;;;5057326;28;21730;-69
2022/10/21 10:14:45;;;;;;;1999.90;999.90;;;16.80;99.90;;;;;;5067463;28;20486;-69
2022/10/21 10:17:27;;;;;;;1999.90;999.90;;;16.90;99.90;;;;;;5068028;28;20467;-67
2022/10/21 10:20:14;;;;;;;1999.90;999.90;;;17.10;99.90;;;;;;5063811;28;20960;-68
2022/10/21 10:22:42;;;;;;;1999.90;999.90;;;17.40;99.90;;;;;;5060883;28;20450;-68
2022/10/21 10:25:17;;;;;;;1999.90;999.90;;;17.60;99.90;;;;;;5067754;28;20452;-69
2022/10/21 10:27:48;;;;;;;1999.90;999.90;;;17.80;99.90;;;;;;5067615;28;20458;-69
2022/10/21 10:30:16;;;;;;;1999.90;999.90;;;18.00;99.90;;;;;;5067028;28;21805;-69
2022/10/21 10:32:44;;;;;;;1999.90;999.90;;;18.00;99.90;;;;;;5066602;28;20439;-69
2022/10/21 10:35:25;;;;;;;1999.90;999.90;;;18.10;99.90;;;;;;5067392;28;20506;-69
2022/10/21 10:37:53;;;;;;;1999.90;999.90;;;18.10;99.90;;;;;;5067914;28;20972;-69
2022/10/21 10:40:23;;;;;;;1999.90;999.90;;;18.20;99.90;;;;;;5067018;28;20461;-68
2022/10/21 10:42:54;;;;;;;1999.90;999.90;;;18.30;99.90;;;;;;5066788;28;20451;-69
2022/10/21 10:45:22;;;;;;;1999.90;999.90;;;18.30;99.90;;;;;;5060474;28;20455;-68
2022/10/21 10:47:53;;;;;;;1999.90;999.90;;;18.30;99.90;;;;;;5065678;28;20470;-69
2022/10/21 10:50:46;;;;;;;1999.90;999.90;;;18.20;99.90;;;;;;5059071;28;21001;-68
2022/10/21 10:53:22;;;;;;;1999.90;999.90;;;18.30;99.90;;;;;;5060750;28;20462;-70
2022/10/21 10:55:55;;;;;;;1999.90;999.90;;;18.20;99.90;;;;;;5062550;28;20844;-70
2022/10/21 10:58:24;;;;;;;1999.90;999.90;;;18.10;99.90;;;;;;5064445;28;20960;-69
2022/10/21 11:00:55;;;;;;;1999.90;999.90;;;18.00;99.90;;;;;;5063596;28;20455;-70
2022/10/21 11:03:28;;;;;;;1999.90;999.90;;;18.00;99.90;;;;;;5055251;28;20447;-70
2022/10/21 11:06:05;;;;;;;1999.90;999.90;;;18.10;99.90;;;;;;5064335;28;20439;-69
2022/10/21 11:08:38;;;;;;;1999.90;999.90;;;18.10;99.90;;;;;;5066741;28;20536;-68
2022/10/21 11:11:10;;;;;;;1999.90;999.90;;;18.10;99.90;;;;;;5066745;28;20442;-70
2022/10/21 11:13:39;;;;;;;1999.90;999.90;;;18.10;99.90;;;;;;5064845;28;20443;-70
2022/10/21 11:16:19;;;;;;;1999.90;999.90;;;18.30;99.90;;;;;;5064068;28;20971;-68
2022/10/21 11:18:52;;;;;;;1999.90;999.90;;;18.40;99.90;;;;;;5066880;28;20848;-69
2022/10/21 11:21:37;;;;;;;1999.90;999.90;;;18.40;99.90;;;;;;5066363;28;20446;-70
2022/10/21 11:24:16;;;;;;;1999.90;999.90;;;18.50;99.90;;;;;;5064747;28;20455;-68
2022/10/21 11:26:50;;;;;;;1999.90;999.90;;;18.70;99.90;;;;;;5065881;28;20814;-68
2022/10/21 11:29:34;;;;;;;1999.90;999.90;;;19.00;99.90;;;;;;5065425;28;20467;-68
2022/10/21 11:32:09;;;;;;;1999.90;999.90;;;19.20;99.90;;;;;;5056272;28;20459;-69
2022/10/21 11:34:47;;;;;;;1999.90;999.90;;;19.40;99.90;;;;;;5065319;28;20454;-69
2022/10/21 11:37:27;;;;;;;1999.90;999.90;;;19.50;99.90;;;;;;5061056;28;20471;-67
2022/10/21 11:39:58;;;;;;;1999.90;999.90;;;19.30;99.90;;;;;;5064945;28;20971;-69
2022/10/21 11:42:31;;;;;;;1999.90;999.90;;;19.30;99.90;;;;;;5064500;28;20458;-68
2022/10/21 11:45:18;;;;;;;1999.90;999.90;;;19.30;99.90;;;;;;5054358;28;20448;-67
2022/10/21 11:47:53;;;;;;;1999.90;999.90;;;19.40;99.90;;;;;;5063764;28;20463;-69
2022/10/21 11:50:29;;;;;;;1999.90;999.90;;;19.60;99.90;;;;;;5059831;28;20450;-68
2022/10/21 11:53:11;;;;;;;1999.90;999.90;;;19.70;99.90;;;;;;5066773;28;20447;-69
2022/10/21 11:55:43;;;;;;;1999.90;999.90;;;19.90;99.90;;;;;;5067602;28;20532;-70
2022/10/21 11:58:21;;;;;;;1999.90;999.90;;;20.10;99.90;;;;;;5069950;28;20972;-69
2022/10/21 12:00:57;;;;;;;1999.90;999.90;;;20.00;99.90;;;;;;5069421;28;21089;-69
2022/10/21 12:03:47;;;;;;;1999.90;999.90;;;19.90;99.90;;;;;;5061494;28;20941;-70
2022/10/21 12:06:23;;;;;;;1999.90;999.90;;;19.60;99.90;;;;;;5069395;28;20971;-72
2022/10/21 12:08:57;;;;;;;1999.90;999.90;;;19.50;99.90;;;;;;5070479;28;20473;-70
2022/10/21 12:11:29;;;;;;;1999.90;999.90;;;19.50;99.90;;;;;;5069359;28;20455;-71
2022/10/21 12:14:00;;;;;;;1999.90;999.90;;;19.50;99.90;;;;;;5069577;28;20443;-69